createdAt,value
2019-03-30T00:00:31.697Z,9.90
2019-03-30T00:03:01.158Z,9.90
2019-03-30T00:05:30.633Z,9.80
2019-03-30T00:08:00.183Z,9.80
2019-03-30T00:10:29.612Z,9.80
2019-03-30T00:12:59.162Z,9.80
2019-03-30T00:15:28.623Z,9.70
2019-03-30T00:17:58.123Z,9.70
2019-03-30T00:20:27.672Z,9.70
2019-03-30T00:22:57.172Z,9.70
2019-03-30T00:25:26.630Z,9.70
2019-03-30T00:27:56.067Z,9.60
2019-03-30T00:30:25.623Z,9.60
2019-03-30T00:33:00.737Z,9.60
2019-03-30T00:35:30.246Z,9.60
2019-03-30T00:37:59.797Z,9.50
2019-03-30T00:40:29.272Z,9.50
2019-03-30T00:42:58.766Z,9.50
2019-03-30T00:45:28.246Z,9.50
2019-03-30T00:47:57.710Z,9.50
2019-03-30T00:50:27.165Z,9.40
2019-03-30T00:52:56.637Z,9.40
2019-03-30T00:55:26.094Z,9.30
2019-03-30T00:57:55.568Z,9.30
2019-03-30T01:00:25.175Z,9.30
2019-03-30T01:02:54.718Z,9.20
2019-03-30T01:05:24.177Z,9.20
2019-03-30T01:07:53.729Z,9.20
2019-03-30T01:10:23.436Z,9.20
2019-03-30T01:12:52.900Z,9.20
2019-03-30T01:15:22.366Z,9.10
2019-03-30T01:17:51.869Z,9.10
2019-03-30T01:20:21.405Z,9.10
2019-03-30T01:22:50.875Z,9.10
2019-03-30T01:25:20.387Z,9.10
2019-03-30T01:27:49.951Z,9.00
2019-03-30T01:30:23.310Z,9.00
2019-03-30T01:32:50.833Z,9.00
2019-03-30T01:35:20.426Z,9.00
2019-03-30T01:37:50.034Z,8.90
2019-03-30T01:40:19.599Z,8.90
2019-03-30T01:42:49.051Z,8.90
2019-03-30T01:45:18.511Z,8.80
2019-03-30T01:47:48.011Z,8.80
2019-03-30T01:50:18.230Z,8.80
2019-03-30T01:52:47.718Z,8.70
2019-03-30T01:55:17.209Z,8.70
2019-03-30T01:57:46.666Z,8.70
2019-03-30T02:00:17.431Z,8.70
2019-03-30T02:02:46.942Z,8.60
2019-03-30T02:05:16.458Z,8.60
2019-03-30T02:07:46.055Z,8.60
2019-03-30T02:10:20.154Z,8.60
2019-03-30T02:12:49.588Z,8.50
2019-03-30T02:15:19.066Z,8.50
2019-03-30T02:17:48.530Z,8.40
2019-03-30T02:20:30.933Z,8.40
2019-03-30T02:22:56.498Z,8.40
2019-03-30T02:25:26.041Z,8.30
2019-03-30T02:27:55.545Z,8.30
2019-03-30T02:30:25.012Z,8.30
2019-03-30T02:32:54.491Z,8.30
2019-03-30T02:35:26.450Z,8.20
2019-03-30T02:37:55.204Z,8.20
2019-03-30T02:40:24.665Z,8.20
2019-03-30T02:42:54.162Z,8.10
2019-03-30T02:45:23.718Z,8.10
2019-03-30T02:47:53.166Z,8.10
2019-03-30T02:50:22.629Z,8.00
2019-03-30T02:52:52.186Z,8.00
2019-03-30T02:55:21.715Z,8.00
2019-03-30T02:57:51.207Z,8.00
2019-03-30T03:00:20.920Z,7.90
2019-03-30T03:02:50.416Z,7.90
2019-03-30T03:05:20.194Z,7.90
2019-03-30T03:07:49.706Z,7.90
2019-03-30T03:10:19.459Z,7.80
2019-03-30T03:12:48.954Z,7.80
2019-03-30T03:15:18.559Z,7.80
2019-03-30T03:17:48.068Z,7.70
2019-03-30T03:20:17.810Z,7.70
2019-03-30T03:22:47.433Z,7.70
2019-03-30T03:25:16.950Z,7.70
2019-03-30T03:27:46.511Z,7.60
2019-03-30T03:30:16.271Z,7.60
2019-03-30T03:32:45.712Z,7.60
2019-03-30T03:35:15.326Z,7.60
2019-03-30T03:37:46.429Z,7.60
2019-03-30T03:40:16.293Z,7.50
2019-03-30T03:42:45.855Z,7.50
2019-03-30T03:45:15.508Z,7.50
2019-03-30T03:47:44.965Z,7.50
2019-03-30T03:50:42.873Z,7.50
2019-03-30T03:53:15.129Z,7.50
2019-03-30T03:55:45.699Z,7.50
2019-03-30T03:58:17.721Z,7.40
2019-03-30T04:00:47.418Z,7.40
2019-03-30T04:03:19.123Z,7.40
2019-03-30T04:05:49.134Z,7.30
2019-03-30T04:08:18.794Z,7.40
2019-03-30T04:10:48.897Z,7.40
2019-03-30T04:13:18.757Z,7.40
2019-03-30T04:15:48.284Z,7.40
2019-03-30T04:18:18.884Z,7.40
2019-03-30T04:20:48.402Z,7.30
2019-03-30T04:23:17.964Z,7.30
2019-03-30T04:25:47.701Z,7.40
2019-03-30T04:28:17.285Z,7.40
2019-03-30T04:30:46.807Z,7.40
2019-03-30T04:33:16.286Z,7.40
2019-03-30T04:35:45.721Z,7.40
2019-03-30T04:38:15.202Z,7.40
2019-03-30T04:40:44.663Z,7.40
2019-03-30T04:43:14.132Z,7.40
2019-03-30T04:45:43.636Z,7.40
2019-03-30T04:48:13.062Z,7.40
2019-03-30T04:50:42.550Z,7.30
2019-03-30T04:53:12.017Z,7.30
2019-03-30T04:55:41.444Z,7.40
2019-03-30T04:58:10.907Z,7.40
2019-03-30T05:00:40.364Z,7.40
2019-03-30T05:03:09.803Z,7.40
2019-03-30T05:05:42.797Z,7.50
2019-03-30T05:08:10.558Z,7.50
2019-03-30T05:10:40.046Z,7.60
2019-03-30T05:13:09.518Z,7.60
2019-03-30T05:15:39.006Z,7.70
2019-03-30T05:18:08.541Z,7.80
2019-03-30T05:20:38.113Z,7.90
2019-03-30T05:23:07.556Z,8.00
2019-03-30T05:25:37.014Z,8.10
2019-03-30T05:28:06.565Z,8.20
2019-03-30T05:30:36.013Z,8.20
2019-03-30T05:33:06.527Z,8.20
2019-03-30T05:35:36.148Z,8.30
2019-03-30T05:38:05.615Z,8.30
2019-03-30T05:40:35.068Z,8.30
2019-03-30T05:43:04.608Z,8.40
2019-03-30T05:45:34.148Z,8.40
2019-03-30T05:48:03.679Z,8.50
2019-03-30T05:50:33.185Z,8.60
2019-03-30T05:53:02.654Z,8.60
2019-03-30T05:55:32.197Z,8.70
2019-03-30T05:58:01.688Z,8.70
2019-03-30T06:00:31.138Z,8.80
2019-03-30T06:03:00.740Z,8.80
2019-03-30T06:05:30.215Z,8.90
2019-03-30T06:07:59.670Z,8.90
2019-03-30T06:10:29.132Z,9.00
2019-03-30T06:12:58.796Z,9.00
2019-03-30T06:15:28.376Z,9.00
2019-03-30T06:17:57.856Z,9.10
2019-03-30T06:20:27.325Z,9.10
2019-03-30T06:22:56.794Z,9.10
2019-03-30T06:25:26.268Z,9.20
2019-03-30T06:27:55.701Z,9.30
2019-03-30T06:30:27.569Z,9.40
2019-03-30T06:32:57.012Z,9.50
2019-03-30T06:35:26.637Z,9.60
2019-03-30T06:37:56.112Z,9.70
2019-03-30T06:40:25.633Z,9.90
2019-03-30T06:42:55.090Z,10.10
2019-03-30T06:45:24.815Z,10.20
2019-03-30T06:47:54.354Z,10.30
2019-03-30T06:50:23.823Z,10.50
2019-03-30T06:52:58.012Z,10.70
2019-03-30T06:55:26.830Z,10.90
2019-03-30T06:57:56.403Z,11.10
2019-03-30T07:00:36.435Z,11.30
2019-03-30T07:03:07.324Z,11.50
2019-03-30T07:05:40.037Z,11.70
2019-03-30T07:08:13.259Z,11.90
2019-03-30T07:10:46.258Z,12.10
2019-03-30T07:13:16.116Z,12.30
2019-03-30T07:15:48.848Z,12.60
2019-03-30T07:18:19.127Z,12.80
2019-03-30T07:20:48.721Z,13.00
2019-03-30T07:23:18.276Z,13.20
2019-03-30T07:25:47.786Z,13.50
2019-03-30T07:28:17.468Z,13.70
2019-03-30T07:30:47.103Z,14.00
2019-03-30T07:33:16.680Z,14.20
2019-03-30T07:35:46.142Z,14.50
2019-03-30T07:38:15.651Z,14.70
2019-03-30T07:40:45.237Z,15.00
2019-03-30T07:43:14.787Z,15.20
2019-03-30T07:45:44.353Z,15.40
2019-03-30T07:48:13.842Z,15.60
2019-03-30T07:50:43.380Z,15.80
2019-03-30T07:53:25.615Z,15.90
2019-03-30T07:55:44.082Z,16.00
2019-03-30T07:58:13.566Z,16.20
2019-03-30T08:00:43.261Z,16.30
2019-03-30T08:03:12.730Z,16.40
2019-03-30T08:05:42.281Z,16.60
2019-03-30T08:08:11.840Z,16.70
2019-03-30T08:10:41.305Z,16.90
2019-03-30T08:13:10.904Z,17.00
2019-03-30T08:15:44.571Z,17.20
2019-03-30T08:18:14.108Z,17.30
2019-03-30T08:20:43.663Z,17.50
2019-03-30T08:23:13.264Z,17.60
2019-03-30T08:25:42.817Z,17.70
2019-03-30T08:28:12.275Z,17.80
2019-03-30T08:30:41.822Z,17.80
2019-03-30T08:33:11.281Z,17.80
2019-03-30T08:35:40.793Z,17.80
2019-03-30T08:38:13.301Z,17.90
2019-03-30T08:40:42.894Z,17.90
2019-03-30T08:43:12.403Z,18.00
2019-03-30T08:45:41.979Z,18.10
2019-03-30T08:48:11.560Z,18.20
2019-03-30T08:50:41.036Z,18.30
2019-03-30T08:53:10.594Z,18.40
2019-03-30T08:55:40.034Z,18.50
2019-03-30T08:58:09.501Z,18.60
2019-03-30T09:00:43.838Z,18.70
2019-03-30T09:03:13.462Z,18.80
2019-03-30T09:05:43.118Z,19.00
2019-03-30T09:08:12.770Z,19.10
2019-03-30T09:10:42.270Z,19.20
2019-03-30T09:13:11.752Z,19.40
2019-03-30T09:15:41.228Z,19.50
2019-03-30T09:18:10.673Z,19.70
2019-03-30T09:20:43.076Z,19.80
2019-03-30T09:23:12.621Z,20.00
2019-03-30T09:25:42.276Z,20.10
2019-03-30T09:28:11.717Z,20.20
2019-03-30T09:30:41.348Z,20.30
2019-03-30T09:33:10.871Z,20.40
2019-03-30T09:35:40.473Z,20.40
2019-03-30T09:38:09.973Z,20.50
2019-03-30T09:40:39.430Z,20.50
2019-03-30T09:43:08.893Z,20.60
2019-03-30T09:45:38.368Z,20.70
2019-03-30T09:48:07.963Z,20.90
2019-03-30T09:50:37.504Z,21.10
2019-03-30T09:53:07.158Z,21.30
2019-03-30T09:55:36.637Z,21.50
2019-03-30T09:58:06.157Z,21.70
2019-03-30T10:00:35.637Z,21.90
2019-03-30T10:03:06.176Z,22.10
2019-03-30T10:05:35.895Z,22.20
2019-03-30T10:08:08.449Z,22.40
2019-03-30T10:10:37.971Z,22.60
2019-03-30T10:13:07.461Z,22.70
2019-03-30T10:15:36.976Z,22.90
2019-03-30T10:18:06.539Z,23.00
2019-03-30T10:20:36.008Z,22.90
2019-03-30T10:23:05.462Z,23.10
2019-03-30T10:25:35.031Z,23.00
2019-03-30T10:28:04.486Z,23.00
2019-03-30T10:30:33.945Z,23.00
2019-03-30T10:33:03.429Z,23.00
2019-03-30T10:35:32.894Z,22.90
2019-03-30T10:38:02.433Z,22.80
2019-03-30T10:40:31.942Z,22.60
2019-03-30T10:43:01.516Z,22.60
2019-03-30T10:45:30.962Z,22.60
2019-03-30T10:48:00.465Z,22.60
2019-03-30T10:50:29.939Z,22.60
2019-03-30T10:52:59.445Z,22.70
2019-03-30T10:55:28.986Z,22.60
2019-03-30T10:57:58.926Z,22.70
2019-03-30T11:00:39.823Z,22.90
2019-03-30T11:03:09.408Z,23.00
2019-03-30T11:05:39.032Z,23.10
2019-03-30T11:08:08.652Z,23.10
2019-03-30T11:10:38.275Z,23.10
2019-03-30T11:13:07.741Z,23.20
2019-03-30T11:15:37.290Z,23.20
2019-03-30T11:18:06.841Z,23.10
2019-03-30T11:20:36.350Z,23.10
2019-03-30T11:23:05.994Z,23.10
2019-03-30T11:25:35.559Z,23.10
2019-03-30T11:28:05.173Z,23.00
2019-03-30T11:30:34.803Z,23.10
2019-03-30T11:33:04.324Z,23.00
2019-03-30T11:35:33.794Z,23.10
2019-03-30T11:38:03.375Z,23.20
2019-03-30T11:40:32.925Z,23.20
2019-03-30T11:43:02.389Z,23.20
2019-03-30T11:45:31.917Z,23.20
2019-03-30T11:48:01.447Z,23.20
2019-03-30T11:50:30.899Z,23.20
2019-03-30T11:53:00.406Z,23.30
2019-03-30T11:55:29.884Z,23.40
2019-03-30T11:57:59.531Z,23.50
2019-03-30T12:00:29.163Z,23.50
2019-03-30T12:02:58.608Z,23.50
2019-03-30T12:05:30.959Z,23.50
2019-03-30T12:08:03.065Z,23.60
2019-03-30T12:10:32.654Z,23.60
2019-03-30T12:13:02.235Z,23.60
2019-03-30T12:15:31.862Z,23.80
2019-03-30T12:18:01.547Z,23.90
2019-03-30T12:20:31.075Z,24.00
2019-03-30T12:23:00.688Z,24.10
2019-03-30T12:25:35.706Z,24.10
2019-03-30T12:28:01.456Z,24.30
2019-03-30T12:30:31.177Z,24.30
2019-03-30T12:33:00.624Z,24.40
2019-03-30T12:35:30.123Z,24.50
2019-03-30T12:37:59.742Z,24.60
2019-03-30T12:40:29.248Z,24.60
2019-03-30T12:42:59.001Z,24.60
2019-03-30T12:45:30.047Z,24.60
2019-03-30T12:48:01.126Z,24.50
2019-03-30T12:50:32.130Z,24.50
2019-03-30T12:53:01.686Z,24.30
2019-03-30T12:55:33.087Z,24.30
2019-03-30T12:58:04.971Z,24.20
2019-03-30T13:00:34.552Z,23.90
2019-03-30T13:03:09.845Z,23.90
2019-03-30T13:05:39.324Z,23.80
2019-03-30T13:08:10.545Z,23.90
2019-03-30T13:10:40.165Z,23.90
2019-03-30T13:13:09.732Z,24.00
2019-03-30T13:15:39.186Z,24.00
2019-03-30T13:18:08.675Z,23.90
2019-03-30T13:20:38.358Z,23.70
2019-03-30T13:23:07.840Z,23.50
2019-03-30T13:25:38.866Z,23.50
2019-03-30T13:28:08.459Z,23.60
2019-03-30T13:30:37.913Z,23.50
2019-03-30T13:33:07.370Z,23.50
2019-03-30T13:35:36.946Z,23.40
2019-03-30T13:38:06.506Z,23.40
2019-03-30T13:40:36.053Z,23.40
2019-03-30T13:43:05.633Z,23.50
2019-03-30T13:45:35.209Z,23.40
2019-03-30T13:48:04.824Z,23.60
2019-03-30T13:50:34.309Z,23.80
2019-03-30T13:53:03.892Z,24.10
2019-03-30T13:55:33.411Z,24.20
2019-03-30T13:58:02.892Z,24.30
2019-03-30T14:00:32.346Z,24.30
2019-03-30T14:03:01.809Z,24.30
2019-03-30T14:05:31.331Z,24.10
2019-03-30T14:08:00.821Z,24.00
2019-03-30T14:10:30.272Z,24.00
2019-03-30T14:12:59.751Z,24.00
2019-03-30T14:15:29.255Z,24.00
2019-03-30T14:17:58.758Z,23.90
2019-03-30T14:20:28.250Z,23.70
2019-03-30T14:22:57.730Z,23.60
2019-03-30T14:25:27.486Z,23.40
2019-03-30T14:27:56.953Z,23.30
2019-03-30T14:30:26.501Z,23.10
2019-03-30T14:32:56.010Z,23.00
2019-03-30T14:35:25.498Z,22.80
2019-03-30T14:37:55.019Z,22.80
2019-03-30T14:40:24.529Z,22.60
2019-03-30T14:42:53.975Z,22.60
2019-03-30T14:45:23.494Z,22.50
2019-03-30T14:47:52.959Z,22.40
2019-03-30T14:50:22.578Z,22.30
2019-03-30T14:52:52.128Z,22.10
2019-03-30T14:55:21.632Z,22.00
2019-03-30T14:57:51.161Z,22.00
2019-03-30T15:00:20.959Z,21.90
2019-03-30T15:02:50.590Z,21.90
2019-03-30T15:05:20.129Z,21.90
2019-03-30T15:07:49.690Z,22.00
2019-03-30T15:10:19.254Z,22.20
2019-03-30T15:12:48.715Z,22.50
2019-03-30T15:15:18.320Z,22.60
2019-03-30T15:17:47.915Z,22.80
2019-03-30T15:20:17.533Z,22.90
2019-03-30T15:22:47.059Z,23.00
2019-03-30T15:25:16.918Z,23.10
2019-03-30T15:27:46.388Z,23.10
2019-03-30T15:30:16.070Z,23.20
2019-03-30T15:32:45.687Z,23.30
2019-03-30T15:35:15.359Z,23.30
2019-03-30T15:37:44.915Z,23.40
2019-03-30T15:40:14.608Z,23.30
2019-03-30T15:42:44.212Z,23.20
2019-03-30T15:45:14.108Z,23.10
2019-03-30T15:47:43.630Z,22.90
2019-03-30T15:50:13.980Z,22.70
2019-03-30T15:52:43.511Z,22.50
2019-03-30T15:55:13.180Z,22.40
2019-03-30T15:57:42.811Z,22.30
2019-03-30T16:00:17.174Z,22.20
2019-03-30T16:02:46.796Z,22.20
2019-03-30T16:05:26.252Z,22.30
2019-03-30T16:07:56.005Z,22.30
2019-03-30T16:10:25.655Z,22.40
2019-03-30T16:12:55.231Z,22.50
2019-03-30T16:15:24.718Z,22.60
2019-03-30T16:17:54.179Z,22.60
2019-03-30T16:20:24.199Z,22.60
2019-03-30T16:22:54.028Z,22.70
2019-03-30T16:25:23.662Z,22.70
2019-03-30T16:27:53.237Z,22.80
2019-03-30T16:30:22.830Z,22.70
2019-03-30T16:32:52.609Z,22.60
2019-03-30T16:35:22.193Z,22.60
2019-03-30T16:37:51.760Z,22.50
2019-03-30T16:40:21.256Z,22.50
2019-03-30T16:42:51.030Z,22.50
2019-03-30T16:45:20.712Z,22.50
2019-03-30T16:47:50.245Z,22.40
2019-03-30T16:50:19.915Z,22.40
2019-03-30T16:52:49.769Z,22.30
2019-03-30T16:55:19.555Z,22.30
2019-03-30T16:57:48.994Z,22.30
2019-03-30T17:00:20.440Z,22.20
2019-03-30T17:02:49.962Z,22.10
2019-03-30T17:05:19.615Z,22.00
2019-03-30T17:07:49.539Z,21.90
2019-03-30T17:10:28.565Z,21.80
2019-03-30T17:12:58.567Z,21.80
2019-03-30T17:15:28.029Z,21.70
2019-03-30T17:17:57.585Z,21.50
2019-03-30T17:20:27.128Z,21.40
2019-03-30T17:22:58.841Z,21.20
2019-03-30T17:25:29.429Z,21.10
2019-03-30T17:27:59.179Z,20.90
2019-03-30T17:30:28.782Z,20.80
2019-03-30T17:32:58.353Z,20.60
2019-03-30T17:35:27.876Z,20.50
2019-03-30T17:37:57.440Z,20.40
2019-03-30T17:40:27.098Z,20.30
2019-03-30T17:42:56.743Z,20.10
2019-03-30T17:45:26.587Z,20.10
2019-03-30T17:47:56.111Z,20.00
2019-03-30T17:50:25.717Z,19.90
2019-03-30T17:52:55.282Z,19.80
2019-03-30T17:55:33.548Z,19.70
2019-03-30T17:57:56.132Z,19.70
2019-03-30T18:00:25.748Z,19.60
2019-03-30T18:02:55.233Z,19.60
2019-03-30T18:05:24.776Z,19.50
2019-03-30T18:07:54.233Z,19.50
2019-03-30T18:10:23.716Z,19.40
2019-03-30T18:12:53.175Z,19.40
2019-03-30T18:15:23.702Z,19.30
2019-03-30T18:17:56.506Z,19.20
2019-03-30T18:20:24.513Z,19.20
2019-03-30T18:22:54.013Z,19.10
2019-03-30T18:25:23.521Z,19.10
2019-03-30T18:27:53.068Z,19.00
2019-03-30T18:30:37.799Z,18.90
2019-03-30T18:33:07.776Z,18.80
2019-03-30T18:35:39.974Z,18.70
2019-03-30T18:38:12.763Z,18.60
2019-03-30T18:40:41.517Z,18.50
2019-03-30T18:43:11.313Z,18.40
2019-03-30T18:45:40.812Z,18.30
2019-03-30T18:48:19.834Z,18.20
2019-03-30T18:50:49.516Z,18.20
2019-03-30T18:53:19.315Z,18.00
2019-03-30T18:55:48.811Z,18.00
2019-03-30T18:58:18.329Z,17.80
2019-03-30T19:00:47.873Z,17.80
2019-03-30T19:03:20.054Z,17.70
2019-03-30T19:05:48.619Z,17.60
2019-03-30T19:08:18.192Z,17.50
2019-03-30T19:10:47.709Z,17.40
2019-03-30T19:13:17.168Z,17.40
2019-03-30T19:15:46.667Z,17.30
2019-03-30T19:18:16.205Z,17.20
2019-03-30T19:20:45.658Z,17.20
2019-03-30T19:23:15.136Z,17.10
2019-03-30T19:25:44.651Z,17.10
2019-03-30T19:28:14.103Z,17.00
2019-03-30T19:30:43.659Z,17.00
2019-03-30T19:33:13.277Z,16.90
2019-03-30T19:35:42.817Z,16.90
2019-03-30T19:38:12.467Z,16.90
2019-03-30T19:40:41.900Z,16.90
2019-03-30T19:43:11.492Z,16.80
2019-03-30T19:45:41.136Z,16.70
2019-03-30T19:48:10.687Z,16.70
2019-03-30T19:50:40.167Z,16.70
2019-03-30T19:53:09.671Z,16.60
2019-03-30T19:55:39.240Z,16.60
2019-03-30T19:58:08.708Z,16.60
2019-03-30T20:00:38.901Z,16.50
2019-03-30T20:03:08.825Z,16.50
2019-03-30T20:05:38.378Z,16.50
2019-03-30T20:08:12.428Z,16.50
2019-03-30T20:10:39.244Z,16.40
2019-03-30T20:13:09.344Z,16.40
2019-03-30T20:15:38.816Z,16.40
2019-03-30T20:18:08.458Z,16.30
2019-03-30T20:20:37.994Z,16.30
2019-03-30T20:23:07.496Z,16.20
2019-03-30T20:25:37.029Z,16.10
2019-03-30T20:28:06.523Z,16.10
2019-03-30T20:30:36.070Z,16.10
2019-03-30T20:33:05.814Z,16.00
2019-03-30T20:35:35.280Z,15.90
2019-03-30T20:38:04.820Z,15.90
2019-03-30T20:40:34.320Z,15.90
2019-03-30T20:43:03.788Z,15.80
2019-03-30T20:45:33.255Z,15.70
2019-03-30T20:48:02.734Z,15.70
2019-03-30T20:50:32.226Z,15.60
2019-03-30T20:53:01.702Z,15.50
2019-03-30T20:55:33.894Z,15.50
2019-03-30T20:58:02.475Z,15.40
2019-03-30T21:00:32.038Z,15.30
2019-03-30T21:03:01.661Z,15.30
2019-03-30T21:05:31.198Z,15.20
2019-03-30T21:08:00.660Z,15.20
2019-03-30T21:10:31.135Z,15.10
2019-03-30T21:13:00.668Z,15.00
2019-03-30T21:15:30.263Z,15.00
2019-03-30T21:17:59.847Z,14.90
2019-03-30T21:20:30.493Z,14.90
2019-03-30T21:22:59.787Z,14.80
2019-03-30T21:25:29.342Z,14.80
2019-03-30T21:27:58.805Z,14.70
2019-03-30T21:30:28.601Z,14.70
2019-03-30T21:32:58.314Z,14.70
2019-03-30T21:35:27.945Z,14.70
2019-03-30T21:37:58.734Z,14.60
2019-03-30T21:40:28.402Z,14.60
2019-03-30T21:42:58.211Z,14.60
2019-03-30T21:45:28.030Z,14.60
2019-03-30T21:47:57.646Z,14.60
2019-03-30T21:50:28.831Z,14.60
2019-03-30T21:52:58.513Z,14.60
2019-03-30T21:55:28.312Z,14.60
2019-03-30T21:57:57.949Z,14.60
2019-03-30T22:00:36.400Z,14.60
2019-03-30T22:03:07.130Z,14.50
2019-03-30T22:05:37.060Z,14.50
2019-03-30T22:08:07.335Z,14.50
2019-03-30T22:10:37.044Z,14.50
2019-03-30T22:13:06.801Z,14.40
2019-03-30T22:15:36.426Z,14.40
2019-03-30T22:18:06.064Z,14.40
2019-03-30T22:20:35.658Z,14.40
2019-03-30T22:23:05.151Z,14.30
2019-03-30T22:25:34.955Z,14.30
2019-03-30T22:28:04.563Z,14.20
2019-03-30T22:30:34.146Z,14.20
2019-03-30T22:33:03.778Z,14.10
2019-03-30T22:35:33.356Z,14.10
2019-03-30T22:38:02.843Z,14.10
2019-03-30T22:40:32.349Z,14.10
2019-03-30T22:43:01.916Z,14.10
2019-03-30T22:45:31.411Z,14.10
2019-03-30T22:48:00.893Z,14.10
2019-03-30T22:50:30.388Z,14.10
2019-03-30T22:52:59.939Z,14.10
2019-03-30T22:55:29.500Z,14.10
2019-03-30T22:57:59.037Z,14.00
2019-03-30T23:00:38.888Z,14.00
2019-03-30T23:03:08.225Z,13.90
2019-03-30T23:05:37.838Z,13.90
2019-03-30T23:08:07.457Z,13.80
2019-03-30T23:10:36.941Z,13.80
2019-03-30T23:13:06.658Z,13.70
2019-03-30T23:15:36.241Z,13.70
2019-03-30T23:18:06.054Z,13.60
2019-03-30T23:20:35.599Z,13.60
2019-03-30T23:23:05.106Z,13.50
2019-03-30T23:25:34.875Z,13.50
2019-03-30T23:28:04.466Z,13.50
2019-03-30T23:30:34.019Z,13.40
2019-03-30T23:33:03.580Z,13.40
2019-03-30T23:35:33.115Z,13.40
2019-03-30T23:38:02.677Z,13.30
2019-03-30T23:40:32.236Z,13.20
2019-03-30T23:43:01.756Z,13.20
2019-03-30T23:45:31.261Z,13.10
2019-03-30T23:48:00.933Z,13.00
2019-03-30T23:50:30.416Z,13.00
2019-03-30T23:52:59.898Z,12.90
2019-03-30T23:55:29.378Z,12.80
2019-03-30T23:57:58.918Z,12.70
